createdAt,value
2023-01-18T00:00:40.372Z,10.13
2023-01-18T00:03:13.219Z,10.40
2023-01-18T00:05:42.050Z,10.10
2023-01-18T00:08:16.457Z,9.70
2023-01-18T00:10:44.026Z,9.70
2023-01-18T00:13:12.276Z,9.95
2023-01-18T00:15:39.617Z,9.90
2023-01-18T00:18:07.280Z,10.13
2023-01-18T00:20:34.617Z,10.95
2023-01-18T00:23:02.228Z,10.40
2023-01-18T00:25:30.640Z,10.13
2023-01-18T00:27:57.986Z,9.75
2023-01-18T00:30:27.847Z,10.32
2023-01-18T00:32:59.444Z,10.55
2023-01-18T00:37:54.597Z,11.35
2023-01-18T00:40:22.908Z,10.52
2023-01-18T00:43:08.909Z,10.38
2023-01-18T00:45:36.280Z,9.30
2023-01-18T00:48:03.823Z,10.20
2023-01-18T00:50:31.221Z,9.70
2023-01-18T00:53:00.201Z,9.88
2023-01-18T00:55:47.081Z,10.80
2023-01-18T00:58:14.676Z,10.90
2023-01-18T01:00:42.211Z,10.50
2023-01-18T01:03:09.687Z,9.93
2023-01-18T01:05:56.599Z,10.73
2023-01-18T01:08:24.038Z,10.45
2023-01-18T01:10:53.422Z,11.05
2023-01-18T01:13:40.888Z,10.55
2023-01-18T01:16:29.417Z,10.30
2023-01-18T01:19:15.988Z,10.30
2023-01-18T01:22:01.884Z,10.13
2023-01-18T01:24:47.913Z,10.77
2023-01-18T01:27:15.249Z,9.98
2023-01-18T01:29:42.834Z,11.18
2023-01-18T01:32:10.679Z,11.43
2023-01-18T01:34:38.186Z,10.73
2023-01-18T01:37:05.727Z,11.23
2023-01-18T01:39:33.120Z,10.93
2023-01-18T01:42:00.458Z,11.57
2023-01-18T01:44:29.940Z,11.48
2023-01-18T01:47:21.471Z,11.60
2023-01-18T01:49:55.069Z,11.48
2023-01-18T01:52:27.987Z,11.60
2023-01-18T01:55:01.759Z,11.63
2023-01-18T01:57:36.625Z,11.65
2023-01-18T02:00:11.298Z,11.60
2023-01-18T02:02:45.829Z,11.65
2023-01-18T02:05:16.648Z,12.00
2023-01-18T02:07:44.449Z,12.63
2023-01-18T02:10:11.853Z,12.25
2023-01-18T02:12:41.264Z,12.65
2023-01-18T02:15:09.226Z,12.13
2023-01-18T02:17:48.652Z,12.88
2023-01-18T02:20:43.967Z,12.05
2023-01-18T02:23:30.030Z,14.23
2023-01-18T02:26:21.795Z,12.50
2023-01-18T02:29:02.024Z,12.55
2023-01-18T02:31:37.819Z,12.35
2023-01-18T02:34:13.638Z,13.52
2023-01-18T02:37:04.481Z,12.75
2023-01-18T02:39:59.520Z,12.73
2023-01-18T02:42:47.017Z,12.45
2023-01-18T02:45:59.719Z,13.80
2023-01-18T02:48:33.700Z,13.60
2023-01-18T02:51:01.027Z,14.38
2023-01-18T02:53:29.077Z,13.43
2023-01-18T02:56:13.495Z,13.32
2023-01-18T02:58:47.327Z,13.50
2023-01-18T03:01:33.922Z,13.43
2023-01-18T03:04:06.405Z,13.13
2023-01-18T03:06:34.892Z,13.65
2023-01-18T03:09:02.612Z,12.95
2023-01-18T03:11:41.929Z,13.80
2023-01-18T03:14:22.056Z,13.45
2023-01-18T03:17:04.932Z,13.18
2023-01-18T03:20:03.220Z,13.25
2023-01-18T03:22:55.514Z,13.98
2023-01-18T03:25:30.731Z,14.27
2023-01-18T03:28:21.781Z,13.10
2023-01-18T03:31:10.942Z,12.88
2023-01-18T03:33:44.923Z,13.57
2023-01-18T03:36:18.999Z,13.15
2023-01-18T03:38:52.837Z,13.27
2023-01-18T03:41:22.588Z,13.63
2023-01-18T03:43:52.274Z,13.95
2023-01-18T03:46:22.303Z,14.30
2023-01-18T03:48:49.924Z,14.52
2023-01-18T03:51:40.208Z,14.38
2023-01-18T03:54:22.864Z,13.25
2023-01-18T03:57:00.743Z,13.93
2023-01-18T03:59:34.201Z,13.32
2023-01-18T04:02:03.633Z,14.40
2023-01-18T04:04:31.235Z,14.07
2023-01-18T04:06:59.196Z,14.73
2023-01-18T04:09:27.313Z,15.00
2023-01-18T04:11:54.779Z,14.50
2023-01-18T04:14:22.293Z,14.77
2023-01-18T04:16:49.993Z,14.73
2023-01-18T04:19:17.767Z,14.23
2023-01-18T04:21:45.235Z,14.65
2023-01-18T04:24:12.928Z,13.90
2023-01-18T04:26:40.465Z,15.27
2023-01-18T04:29:09.174Z,15.25
2023-01-18T04:31:36.791Z,15.00
2023-01-18T04:34:04.348Z,15.30
2023-01-18T04:36:31.825Z,14.88
2023-01-18T04:38:59.404Z,16.02
2023-01-18T04:41:26.906Z,14.02
2023-01-18T04:43:54.672Z,14.88
2023-01-18T04:46:22.207Z,14.98
2023-01-18T04:48:51.832Z,15.60
2023-01-18T04:51:19.854Z,14.88
2023-01-18T04:53:48.094Z,14.25
2023-01-18T04:56:16.293Z,15.23
2023-01-18T04:58:44.145Z,16.17
2023-01-18T05:01:14.662Z,15.70
2023-01-18T05:03:42.461Z,16.42
2023-01-18T05:06:12.947Z,17.38
2023-01-18T05:08:41.111Z,15.95
2023-01-18T05:11:14.450Z,17.00
2023-01-18T05:13:43.028Z,17.10
2023-01-18T05:16:17.881Z,16.83
2023-01-18T05:18:46.287Z,17.33
2023-01-18T05:21:14.789Z,17.90
2023-01-18T05:23:42.420Z,17.58
2023-01-18T05:26:16.051Z,17.73
2023-01-18T05:28:44.797Z,17.20
2023-01-18T05:31:13.315Z,18.52
2023-01-18T05:33:41.113Z,19.63
2023-01-18T05:36:08.862Z,18.08
2023-01-18T05:38:36.334Z,18.77
2023-01-18T05:41:03.893Z,17.92
2023-01-18T05:43:31.515Z,17.88
2023-01-18T05:45:59.154Z,20.13
2023-01-18T05:48:26.689Z,19.05
2023-01-18T05:50:54.424Z,19.27
2023-01-18T05:53:23.249Z,18.40
2023-01-18T05:55:58.781Z,19.58
2023-01-18T05:58:27.819Z,18.88
2023-01-18T06:00:55.735Z,18.65
2023-01-18T06:03:25.271Z,18.05
2023-01-18T06:05:53.305Z,19.25
2023-01-18T06:08:21.241Z,18.33
2023-01-18T06:10:59.556Z,19.52
2023-01-18T06:13:28.986Z,19.63
2023-01-18T06:15:58.538Z,19.13
2023-01-18T06:18:27.697Z,19.27
2023-01-18T06:21:01.384Z,18.48
2023-01-18T06:23:30.323Z,18.42
2023-01-18T06:25:58.613Z,18.77
2023-01-18T06:28:26.200Z,18.73
2023-01-18T06:30:55.467Z,18.85
2023-01-18T06:33:24.213Z,19.00
2023-01-18T06:35:52.338Z,17.95
2023-01-18T06:38:20.735Z,17.77
2023-01-18T06:40:48.224Z,19.08
2023-01-18T06:43:16.068Z,19.05
2023-01-18T06:45:43.820Z,18.13
2023-01-18T06:48:11.258Z,17.88
2023-01-18T06:50:38.840Z,18.33
2023-01-18T06:53:06.329Z,18.10
2023-01-18T06:55:34.761Z,19.27
2023-01-18T06:58:02.760Z,18.77
2023-01-18T07:00:30.254Z,19.58
2023-01-18T07:02:58.664Z,20.40
2023-01-18T07:05:26.456Z,20.23
2023-01-18T07:07:53.877Z,20.00
2023-01-18T07:10:21.448Z,21.05
2023-01-18T07:12:50.941Z,21.00
2023-01-18T07:15:22.851Z,21.40
2023-01-18T07:17:50.969Z,20.35
2023-01-18T07:20:18.659Z,19.52
2023-01-18T07:22:46.147Z,19.10
2023-01-18T07:25:13.799Z,20.30
2023-01-18T07:27:43.598Z,19.85
2023-01-18T07:30:12.504Z,19.95
2023-01-18T07:32:45.161Z,20.58
2023-01-18T07:35:12.641Z,20.13
2023-01-18T07:37:40.062Z,20.33
2023-01-18T07:40:10.442Z,21.38
2023-01-18T07:42:37.995Z,19.83
2023-01-18T07:45:09.359Z,19.98
2023-01-18T07:47:39.254Z,21.13
2023-01-18T07:50:07.231Z,21.15
2023-01-18T07:52:34.936Z,19.95
2023-01-18T07:55:02.557Z,18.98
2023-01-18T07:57:29.936Z,20.25
2023-01-18T07:59:57.448Z,20.00
2023-01-18T08:02:24.913Z,20.27
2023-01-18T08:04:52.486Z,20.13
2023-01-18T08:07:20.057Z,19.45
2023-01-18T08:09:47.531Z,21.10
2023-01-18T08:12:18.109Z,19.92
2023-01-18T08:14:46.063Z,19.08
2023-01-18T08:17:13.525Z,18.23
2023-01-18T08:19:41.077Z,19.23
2023-01-18T08:22:08.619Z,18.77
2023-01-18T08:24:36.072Z,19.08
2023-01-18T08:27:03.618Z,18.25
2023-01-18T08:29:32.425Z,18.10
2023-01-18T08:32:00.778Z,19.48
2023-01-18T08:34:28.617Z,19.60
2023-01-18T08:36:56.081Z,20.13
2023-01-18T08:39:23.726Z,20.33
2023-01-18T08:41:51.204Z,19.80
2023-01-18T08:44:18.982Z,21.27
2023-01-18T08:46:46.513Z,19.75
2023-01-18T08:49:14.125Z,20.08
2023-01-18T08:51:42.005Z,20.33
2023-01-18T08:54:09.535Z,19.30
2023-01-18T08:56:37.074Z,19.67
2023-01-18T08:59:08.841Z,20.83
2023-01-18T09:01:36.402Z,20.05
2023-01-18T09:04:04.228Z,19.48
2023-01-18T09:06:33.820Z,20.30
2023-01-18T09:09:01.687Z,20.10
2023-01-18T09:11:29.252Z,20.13
2023-01-18T09:14:01.406Z,19.73
2023-01-18T09:16:30.554Z,20.90
2023-01-18T09:18:58.687Z,21.67
2023-01-18T09:21:28.481Z,22.80
2023-01-18T09:23:56.112Z,22.10
2023-01-18T09:26:23.619Z,23.02
2023-01-18T09:28:52.848Z,21.63
2023-01-18T09:31:23.489Z,21.85
2023-01-18T09:33:54.003Z,21.00
2023-01-18T09:36:26.723Z,21.73
2023-01-18T09:38:57.885Z,20.13
2023-01-18T09:41:31.181Z,21.50
2023-01-18T09:44:04.684Z,22.17
2023-01-18T09:46:36.350Z,21.58
2023-01-18T09:49:12.743Z,22.45
2023-01-18T09:51:43.053Z,22.30
2023-01-18T09:54:34.516Z,21.85
2023-01-18T09:57:16.183Z,22.55
2023-01-18T10:00:01.058Z,24.38
2023-01-18T10:02:39.427Z,25.25
2023-01-18T10:05:11.527Z,26.17
2023-01-18T10:07:52.185Z,25.33
2023-01-18T10:10:20.012Z,25.52
2023-01-18T10:12:58.172Z,25.10
2023-01-18T10:15:35.113Z,26.45
2023-01-18T10:18:02.705Z,25.50
2023-01-18T10:20:38.630Z,25.77
2023-01-18T10:23:09.305Z,24.52
2023-01-18T10:25:52.407Z,23.83
2023-01-18T10:28:48.962Z,24.13
2023-01-18T10:31:22.491Z,23.52
2023-01-18T10:33:55.310Z,23.48
2023-01-18T10:36:32.803Z,25.45
2023-01-18T10:39:02.853Z,23.85
2023-01-18T10:41:37.918Z,24.35
2023-01-18T10:44:05.753Z,24.40
2023-01-18T10:46:33.169Z,22.88
2023-01-18T10:49:00.931Z,23.15
2023-01-18T10:51:37.219Z,23.35
2023-01-18T10:54:34.176Z,23.08
2023-01-18T10:57:03.688Z,23.85
2023-01-18T10:59:42.580Z,22.02
2023-01-18T11:02:33.589Z,24.52
2023-01-18T11:05:22.482Z,25.80
2023-01-18T11:08:14.306Z,24.20
2023-01-18T11:10:43.816Z,25.05
2023-01-18T11:13:42.913Z,24.98
2023-01-18T11:16:15.642Z,24.08
2023-01-18T11:19:01.780Z,24.52
2023-01-18T11:21:43.887Z,25.10
2023-01-18T11:24:24.915Z,24.90
2023-01-18T11:26:59.789Z,24.90
2023-01-18T11:29:34.956Z,26.52
2023-01-18T11:32:06.860Z,24.25
2023-01-18T11:34:39.393Z,25.80
2023-01-18T11:37:29.333Z,25.05
2023-01-18T11:39:57.228Z,23.13
2023-01-18T11:42:28.420Z,25.08
2023-01-18T11:44:55.878Z,23.08
2023-01-18T11:47:59.089Z,24.02
2023-01-18T11:50:34.230Z,24.13
2023-01-18T11:53:24.525Z,23.67
2023-01-18T11:56:05.869Z,22.65
2023-01-18T11:58:35.763Z,21.85
2023-01-18T12:01:27.640Z,23.13
2023-01-18T12:04:06.539Z,21.70
2023-01-18T12:06:54.532Z,22.42
2023-01-18T12:09:48.955Z,20.35
2023-01-18T12:12:37.392Z,20.67
2023-01-18T12:15:17.224Z,19.65
2023-01-18T12:18:13.355Z,19.67
2023-01-18T12:21:01.924Z,21.15
2023-01-18T12:23:44.584Z,19.55
2023-01-18T12:26:49.426Z,21.17
2023-01-18T12:29:54.112Z,21.90
2023-01-18T12:32:49.032Z,20.77
2023-01-18T12:35:45.120Z,21.95
2023-01-18T12:38:26.001Z,21.90
2023-01-18T12:41:35.051Z,21.42
2023-01-18T12:44:11.665Z,21.05
2023-01-18T12:46:40.958Z,21.23
2023-01-18T12:49:19.205Z,22.35
2023-01-18T12:51:51.127Z,22.45
2023-01-18T12:56:56.293Z,21.65
2023-01-18T12:59:40.704Z,21.98
2023-01-18T13:02:21.465Z,21.58
2023-01-18T13:04:59.659Z,22.15
2023-01-18T13:07:36.381Z,22.88
2023-01-18T13:10:07.490Z,22.52
2023-01-18T13:12:35.896Z,23.50
2023-01-18T13:15:25.833Z,24.63
2023-01-18T13:18:05.794Z,24.27
2023-01-18T13:21:02.351Z,23.33
2023-01-18T13:23:48.143Z,22.92
2023-01-18T13:26:29.932Z,23.17
2023-01-18T13:29:08.142Z,23.63
2023-01-18T13:31:36.800Z,23.25
2023-01-18T13:34:04.645Z,22.92
2023-01-18T13:36:45.263Z,22.90
2023-01-18T13:39:19.213Z,25.20
2023-01-18T13:42:05.013Z,24.70
2023-01-18T13:44:45.971Z,24.83
2023-01-18T13:47:45.959Z,24.27
2023-01-18T13:50:38.171Z,25.85
2023-01-18T13:55:47.131Z,24.77
2023-01-18T13:58:35.022Z,25.23
2023-01-18T14:01:05.567Z,25.65
2023-01-18T14:03:43.695Z,26.63
2023-01-18T14:06:24.903Z,26.20
2023-01-18T14:08:56.201Z,24.70
2023-01-18T14:11:27.807Z,25.25
2023-01-18T14:13:55.039Z,25.13
2023-01-18T14:16:29.503Z,24.98
2023-01-18T14:19:18.366Z,26.25
2023-01-18T14:21:54.828Z,26.42
2023-01-18T14:24:37.890Z,26.23
2023-01-18T14:27:09.479Z,26.38
2023-01-18T14:29:42.927Z,26.38
2023-01-18T14:32:18.426Z,26.42
2023-01-18T14:34:46.009Z,26.15
2023-01-18T14:37:32.088Z,25.40
2023-01-18T14:40:05.517Z,25.58
2023-01-18T14:42:35.146Z,24.58
2023-01-18T14:45:04.669Z,24.45
2023-01-18T14:47:33.917Z,23.23
2023-01-18T14:50:04.216Z,24.65
2023-01-18T14:52:34.305Z,23.80
2023-01-18T14:55:01.998Z,24.77
2023-01-18T14:57:29.456Z,23.48
2023-01-18T15:00:14.825Z,22.92
2023-01-18T15:02:43.324Z,21.70
2023-01-18T15:05:11.829Z,23.02
2023-01-18T15:07:40.724Z,21.70
2023-01-18T15:10:09.452Z,21.35
2023-01-18T15:12:39.043Z,22.13
2023-01-18T15:15:21.679Z,21.30
2023-01-18T15:17:50.432Z,22.58
2023-01-18T15:20:18.300Z,23.05
2023-01-18T15:22:45.847Z,21.88
2023-01-18T15:25:39.678Z,22.92
2023-01-18T15:28:22.927Z,22.25
2023-01-18T15:30:53.725Z,21.80
2023-01-18T15:33:23.668Z,22.05
2023-01-18T15:35:56.926Z,22.70
2023-01-18T15:38:24.620Z,23.60
2023-01-18T15:41:00.994Z,22.45
2023-01-18T15:43:28.590Z,23.05
2023-01-18T15:45:57.491Z,23.70
2023-01-18T15:48:27.046Z,22.95
2023-01-18T15:51:04.335Z,23.13
2023-01-18T15:53:37.641Z,22.83
2023-01-18T15:56:07.958Z,22.85
2023-01-18T15:58:42.894Z,23.00
2023-01-18T16:01:12.978Z,22.08
2023-01-18T16:03:53.830Z,23.27
2023-01-18T16:06:21.172Z,22.67
2023-01-18T16:09:12.180Z,22.45
2023-01-18T16:11:56.626Z,22.17
2023-01-18T16:14:35.324Z,22.60
2023-01-18T16:17:16.071Z,22.52
2023-01-18T16:19:52.035Z,23.85
2023-01-18T16:22:24.943Z,23.08
2023-01-18T16:25:29.579Z,24.08
2023-01-18T16:28:00.376Z,24.02
2023-01-18T16:30:40.712Z,24.40
2023-01-18T16:33:17.748Z,24.45
2023-01-18T16:35:46.044Z,23.45
2023-01-18T16:38:15.903Z,25.02
2023-01-18T16:40:49.509Z,23.80
2023-01-18T16:43:26.409Z,24.50
2023-01-18T16:45:56.050Z,24.27
2023-01-18T16:48:26.199Z,24.70
2023-01-18T16:50:55.883Z,24.15
2023-01-18T16:53:23.438Z,24.48
2023-01-18T16:55:51.068Z,22.63
2023-01-18T16:58:19.044Z,23.00
2023-01-18T17:01:06.978Z,23.95
2023-01-18T17:03:36.104Z,24.90
2023-01-18T17:06:03.857Z,24.08
2023-01-18T17:08:31.202Z,25.70
2023-01-18T17:10:58.560Z,23.40
2023-01-18T17:13:26.022Z,24.35
2023-01-18T17:15:53.660Z,24.02
2023-01-18T17:18:26.953Z,22.85
2023-01-18T17:20:55.426Z,23.50
2023-01-18T17:23:23.386Z,23.13
2023-01-18T17:25:51.080Z,22.35
2023-01-18T17:28:19.445Z,22.55
2023-01-18T17:30:49.500Z,23.90
2023-01-18T17:33:20.431Z,22.52
2023-01-18T17:35:49.985Z,21.58
2023-01-18T17:38:24.415Z,21.48
2023-01-18T17:40:52.767Z,21.92
2023-01-18T17:43:32.027Z,23.30
2023-01-18T17:46:05.950Z,23.95
2023-01-18T17:48:33.999Z,24.25
2023-01-18T17:51:01.533Z,22.98
2023-01-18T17:53:29.047Z,23.33
2023-01-18T17:55:56.526Z,23.10
2023-01-18T17:58:24.244Z,23.42
2023-01-18T18:00:51.956Z,23.17
2023-01-18T18:03:20.555Z,23.30
2023-01-18T18:05:48.299Z,23.50
2023-01-18T18:08:18.101Z,23.23
2023-01-18T18:10:45.574Z,24.50
2023-01-18T18:13:12.931Z,23.15
2023-01-18T18:15:45.926Z,22.13
2023-01-18T18:18:22.638Z,22.17
2023-01-18T18:20:56.939Z,23.02
2023-01-18T18:23:25.240Z,23.00
2023-01-18T18:25:53.075Z,23.05
2023-01-18T18:28:21.529Z,23.40
2023-01-18T18:30:50.355Z,23.90
2023-01-18T18:33:19.565Z,23.40
2023-01-18T18:35:51.892Z,23.77
2023-01-18T18:38:22.911Z,22.83
2023-01-18T18:40:51.221Z,23.75
2023-01-18T18:43:19.225Z,24.02
2023-01-18T18:45:47.704Z,24.33
2023-01-18T18:48:15.292Z,23.13
2023-01-18T18:50:42.775Z,23.83
2023-01-18T18:53:10.430Z,25.25
2023-01-18T18:55:38.022Z,23.73
2023-01-18T18:58:05.830Z,24.27
2023-01-18T19:00:33.314Z,23.85
2023-01-18T19:03:02.755Z,23.02
2023-01-18T19:05:31.312Z,22.98
2023-01-18T19:07:59.312Z,24.65
2023-01-18T19:10:29.051Z,24.08
2023-01-18T19:12:57.595Z,22.27
2023-01-18T19:15:25.701Z,23.40
2023-01-18T19:17:53.945Z,23.45
2023-01-18T19:20:21.966Z,23.40
2023-01-18T19:22:50.561Z,24.25
2023-01-18T19:25:18.578Z,24.77
2023-01-18T19:27:46.098Z,24.27
2023-01-18T19:30:18.697Z,23.88
2023-01-18T19:32:51.071Z,24.52
2023-01-18T19:35:20.225Z,24.38
2023-01-18T19:37:48.488Z,24.90
2023-01-18T19:40:16.979Z,25.58
2023-01-18T19:42:44.620Z,24.52
2023-01-18T19:45:19.575Z,23.67
2023-01-18T19:47:54.771Z,25.52
2023-01-18T19:50:23.433Z,24.55
2023-01-18T19:52:51.282Z,23.80
2023-01-18T19:55:20.223Z,25.33
2023-01-18T19:57:48.640Z,25.45
2023-01-18T20:00:16.671Z,25.92
2023-01-18T20:02:44.259Z,25.20
2023-01-18T20:05:11.827Z,26.48
2023-01-18T20:07:39.744Z,25.45
2023-01-18T20:10:07.810Z,24.88
2023-01-18T20:12:35.371Z,24.98
2023-01-18T20:15:03.225Z,24.63
2023-01-18T20:17:30.932Z,24.60
2023-01-18T20:19:58.476Z,25.98
2023-01-18T20:22:26.088Z,27.13
2023-01-18T20:24:53.546Z,28.38
2023-01-18T20:27:21.035Z,27.30
2023-01-18T20:29:48.456Z,25.30
2023-01-18T20:32:17.582Z,25.02
2023-01-18T20:34:47.020Z,26.65
2023-01-18T20:37:15.661Z,25.05
2023-01-18T20:39:43.247Z,25.70
2023-01-18T20:42:10.657Z,24.92
2023-01-18T20:44:38.111Z,26.27
2023-01-18T20:47:05.781Z,25.35
2023-01-18T20:49:38.089Z,25.92
2023-01-18T20:52:07.719Z,26.67
2023-01-18T20:54:36.705Z,26.23
2023-01-18T20:57:07.262Z,25.38
2023-01-18T20:59:34.759Z,25.95
2023-01-18T21:02:03.132Z,24.27
2023-01-18T21:04:30.750Z,25.35
2023-01-18T21:06:58.377Z,25.30
2023-01-18T21:09:25.998Z,25.35
2023-01-18T21:11:53.650Z,26.10
2023-01-18T21:14:21.152Z,25.08
2023-01-18T21:16:48.788Z,26.77
2023-01-18T21:19:16.871Z,25.52
2023-01-18T21:21:44.691Z,27.05
2023-01-18T21:24:12.328Z,27.55
2023-01-18T21:26:39.797Z,26.60
2023-01-18T21:29:07.189Z,26.30
2023-01-18T21:31:34.652Z,28.05
2023-01-18T21:34:02.061Z,28.13
2023-01-18T21:36:29.472Z,27.30
2023-01-18T21:38:57.000Z,26.75
2023-01-18T21:41:43.056Z,27.45
2023-01-18T21:44:30.733Z,27.67
2023-01-18T21:46:59.020Z,27.52
2023-01-18T21:50:15.951Z,27.02
2023-01-18T21:52:51.900Z,25.67
2023-01-18T21:55:20.135Z,25.75
2023-01-18T21:58:07.464Z,25.95
2023-01-18T22:00:39.422Z,26.23
2023-01-18T22:03:07.303Z,26.30
2023-01-18T22:05:34.904Z,24.05
2023-01-18T22:08:02.769Z,25.60
2023-01-18T22:10:30.345Z,23.98
2023-01-18T22:12:57.960Z,24.90
2023-01-18T22:15:25.498Z,24.00
2023-01-18T22:17:53.073Z,24.55
2023-01-18T22:20:20.674Z,22.75
2023-01-18T22:22:48.499Z,24.00
2023-01-18T22:25:15.900Z,24.05
2023-01-18T22:27:43.499Z,25.13
2023-01-18T22:30:11.441Z,22.70
2023-01-18T22:32:39.274Z,24.55
2023-01-18T22:35:06.756Z,23.10
2023-01-18T22:37:34.241Z,21.95
2023-01-18T22:40:01.569Z,23.85
2023-01-18T22:42:29.183Z,22.95
2023-01-18T22:44:56.600Z,23.80
2023-01-18T22:47:24.039Z,22.73
2023-01-18T22:49:51.452Z,23.23
2023-01-18T22:52:19.040Z,22.98
2023-01-18T22:54:46.725Z,24.02
2023-01-18T22:57:14.464Z,22.02
2023-01-18T22:59:41.915Z,22.83
2023-01-18T23:02:09.322Z,22.35
2023-01-18T23:04:36.804Z,22.92
2023-01-18T23:07:04.390Z,22.10
2023-01-18T23:09:31.759Z,23.67
2023-01-18T23:11:59.174Z,22.63
2023-01-18T23:14:45.149Z,23.13
2023-01-18T23:17:32.154Z,22.15
2023-01-18T23:19:59.677Z,21.73
2023-01-18T23:22:27.294Z,22.10
2023-01-18T23:24:54.878Z,23.20
2023-01-18T23:27:22.891Z,22.88
2023-01-18T23:29:57.415Z,22.25
2023-01-18T23:32:26.624Z,22.95
2023-01-18T23:34:55.419Z,20.83
2023-01-18T23:37:23.569Z,20.02
2023-01-18T23:40:09.644Z,19.40
2023-01-18T23:42:55.645Z,18.77
2023-01-18T23:45:41.749Z,17.98
2023-01-18T23:48:29.767Z,16.80
2023-01-18T23:51:15.752Z,19.55
2023-01-18T23:54:01.777Z,19.15
2023-01-18T23:56:29.413Z,19.60
2023-01-18T23:58:57.479Z,20.00
